sensor_id;sensor_type;location;lat;lon;timestamp;temperature;humidity
64062;DHT22;50308;47.438;-1.528;2024-01-15T00:02:05;6.70;94.00
64062;DHT22;50308;47.438;-1.528;2024-01-15T00:04:36;6.70;94.00
64062;DHT22;50308;47.438;-1.528;2024-01-15T00:07:01;6.70;94.10
64062;DHT22;50308;47.438;-1.528;2024-01-15T00:09:27;6.70;94.00
64062;DHT22;50308;47.438;-1.528;2024-01-15T00:11:53;6.70;94.00
64062;DHT22;50308;47.438;-1.528;2024-01-15T00:14:18;6.70;94.00
64062;DHT22;50308;47.438;-1.528;2024-01-15T00:16:46;6.70;94.00
64062;DHT22;50308;47.438;-1.528;2024-01-15T00:19:11;6.70;94.50
64062;DHT22;50308;47.438;-1.528;2024-01-15T00:21:37;6.70;94.10
64062;DHT22;50308;47.438;-1.528;2024-01-15T00:24:03;6.70;94.00
64062;DHT22;50308;47.438;-1.528;2024-01-15T00:26:28;6.70;94.00
64062;DHT22;50308;47.438;-1.528;2024-01-15T00:28:54;6.80;94.00
64062;DHT22;50308;47.438;-1.528;2024-01-15T00:31:20;6.70;94.10
64062;DHT22;50308;47.438;-1.528;2024-01-15T00:33:46;6.70;94.10
64062;DHT22;50308;47.438;-1.528;2024-01-15T00:36:11;6.70;94.10
64062;DHT22;50308;47.438;-1.528;2024-01-15T00:38:37;6.70;94.10
64062;DHT22;50308;47.438;-1.528;2024-01-15T00:41:03;6.80;94.10
64062;DHT22;50308;47.438;-1.528;2024-01-15T00:43:28;6.70;94.10
64062;DHT22;50308;47.438;-1.528;2024-01-15T00:45:54;6.70;94.10
64062;DHT22;50308;47.438;-1.528;2024-01-15T00:48:20;6.70;94.10
64062;DHT22;50308;47.438;-1.528;2024-01-15T00:50:45;6.70;94.10
64062;DHT22;50308;47.438;-1.528;2024-01-15T00:53:11;6.70;94.10
64062;DHT22;50308;47.438;-1.528;2024-01-15T00:55:37;6.70;94.10
64062;DHT22;50308;47.438;-1.528;2024-01-15T00:58:03;6.70;94.10
64062;DHT22;50308;47.438;-1.528;2024-01-15T01:00:29;6.70;94.20
64062;DHT22;50308;47.438;-1.528;2024-01-15T01:02:55;6.80;94.20
64062;DHT22;50308;47.438;-1.528;2024-01-15T01:05:20;6.70;94.20
64062;DHT22;50308;47.438;-1.528;2024-01-15T01:07:46;6.80;94.20
64062;DHT22;50308;47.438;-1.528;2024-01-15T01:10:12;6.70;94.20
64062;DHT22;50308;47.438;-1.528;2024-01-15T01:12:37;6.80;94.20
64062;DHT22;50308;47.438;-1.528;2024-01-15T01:15:03;6.80;94.20
64062;DHT22;50308;47.438;-1.528;2024-01-15T01:17:29;6.70;94.20
64062;DHT22;50308;47.438;-1.528;2024-01-15T01:19:56;6.70;94.20
64062;DHT22;50308;47.438;-1.528;2024-01-15T01:22:21;6.80;94.20
64062;DHT22;50308;47.438;-1.528;2024-01-15T01:24:47;6.80;94.30
64062;DHT22;50308;47.438;-1.528;2024-01-15T01:27:13;6.80;94.20
64062;DHT22;50308;47.438;-1.528;2024-01-15T01:29:38;6.80;94.20
64062;DHT22;50308;47.438;-1.528;2024-01-15T01:32:04;6.80;94.30
64062;DHT22;50308;47.438;-1.528;2024-01-15T01:34:39;6.70;94.20
64062;DHT22;50308;47.438;-1.528;2024-01-15T01:37:06;6.80;94.30
64062;DHT22;50308;47.438;-1.528;2024-01-15T01:39:32;6.80;94.40
64062;DHT22;50308;47.438;-1.528;2024-01-15T01:41:58;6.80;94.40
64062;DHT22;50308;47.438;-1.528;2024-01-15T01:44:24;6.80;94.40
64062;DHT22;50308;47.438;-1.528;2024-01-15T01:46:49;6.80;94.40
64062;DHT22;50308;47.438;-1.528;2024-01-15T01:49:15;6.80;94.30
64062;DHT22;50308;47.438;-1.528;2024-01-15T01:51:41;6.80;94.40
64062;DHT22;50308;47.438;-1.528;2024-01-15T01:54:08;6.80;94.40
64062;DHT22;50308;47.438;-1.528;2024-01-15T01:56:35;6.80;94.40
64062;DHT22;50308;47.438;-1.528;2024-01-15T01:59:01;6.80;94.40
64062;DHT22;50308;47.438;-1.528;2024-01-15T02:01:29;6.80;94.40
64062;DHT22;50308;47.438;-1.528;2024-01-15T02:03:55;6.80;94.40
64062;DHT22;50308;47.438;-1.528;2024-01-15T02:06:23;6.80;94.50
64062;DHT22;50308;47.438;-1.528;2024-01-15T02:08:48;6.80;94.40
64062;DHT22;50308;47.438;-1.528;2024-01-15T02:11:15;6.80;94.40
64062;DHT22;50308;47.438;-1.528;2024-01-15T02:13:40;6.80;94.40
64062;DHT22;50308;47.438;-1.528;2024-01-15T02:16:06;6.80;94.50
64062;DHT22;50308;47.438;-1.528;2024-01-15T02:18:45;6.80;94.60
64062;DHT22;50308;47.438;-1.528;2024-01-15T02:21:11;6.80;94.50
64062;DHT22;50308;47.438;-1.528;2024-01-15T02:23:37;6.80;94.60
64062;DHT22;50308;47.438;-1.528;2024-01-15T02:26:04;6.80;94.60
64062;DHT22;50308;47.438;-1.528;2024-01-15T02:28:30;6.80;94.50
64062;DHT22;50308;47.438;-1.528;2024-01-15T02:30:57;6.80;94.50
64062;DHT22;50308;47.438;-1.528;2024-01-15T02:33:23;6.80;94.60
64062;DHT22;50308;47.438;-1.528;2024-01-15T02:35:48;6.80;94.50
64062;DHT22;50308;47.438;-1.528;2024-01-15T02:38:16;6.80;94.60
64062;DHT22;50308;47.438;-1.528;2024-01-15T02:40:44;6.80;94.60
64062;DHT22;50308;47.438;-1.528;2024-01-15T02:43:10;6.80;94.60
64062;DHT22;50308;47.438;-1.528;2024-01-15T02:45:36;6.80;94.60
64062;DHT22;50308;47.438;-1.528;2024-01-15T02:48:02;6.80;94.60
64062;DHT22;50308;47.438;-1.528;2024-01-15T02:50:28;6.80;94.60
64062;DHT22;50308;47.438;-1.528;2024-01-15T02:52:53;6.80;94.60
64062;DHT22;50308;47.438;-1.528;2024-01-15T02:55:19;6.80;94.60
64062;DHT22;50308;47.438;-1.528;2024-01-15T02:57:45;6.80;94.60
64062;DHT22;50308;47.438;-1.528;2024-01-15T03:00:11;6.80;94.60
64062;DHT22;50308;47.438;-1.528;2024-01-15T03:02:38;6.80;94.60
64062;DHT22;50308;47.438;-1.528;2024-01-15T03:05:06;6.80;94.60
64062;DHT22;50308;47.438;-1.528;2024-01-15T03:07:32;6.80;94.60
64062;DHT22;50308;47.438;-1.528;2024-01-15T03:09:57;6.80;94.60
64062;DHT22;50308;47.438;-1.528;2024-01-15T03:12:23;6.80;94.60
64062;DHT22;50308;47.438;-1.528;2024-01-15T03:14:49;6.80;94.60
64062;DHT22;50308;47.438;-1.528;2024-01-15T03:17:14;6.80;94.60
64062;DHT22;50308;47.438;-1.528;2024-01-15T03:19:40;6.80;94.60
64062;DHT22;50308;47.438;-1.528;2024-01-15T03:22:06;6.80;94.60
64062;DHT22;50308;47.438;-1.528;2024-01-15T03:24:33;6.80;94.60
64062;DHT22;50308;47.438;-1.528;2024-01-15T03:26:59;6.80;94.60
64062;DHT22;50308;47.438;-1.528;2024-01-15T03:29:26;6.80;94.60
64062;DHT22;50308;47.438;-1.528;2024-01-15T03:31:52;6.80;94.60
64062;DHT22;50308;47.438;-1.528;2024-01-15T03:34:17;6.80;94.60
64062;DHT22;50308;47.438;-1.528;2024-01-15T03:36:43;6.80;94.60
64062;DHT22;50308;47.438;-1.528;2024-01-15T03:39:09;6.80;94.60
64062;DHT22;50308;47.438;-1.528;2024-01-15T03:41:34;6.80;94.60
64062;DHT22;50308;47.438;-1.528;2024-01-15T03:44:00;6.80;94.60
64062;DHT22;50308;47.438;-1.528;2024-01-15T03:46:27;6.80;94.60
64062;DHT22;50308;47.438;-1.528;2024-01-15T03:48:52;6.80;94.60
64062;DHT22;50308;47.438;-1.528;2024-01-15T03:51:18;6.80;94.60
64062;DHT22;50308;47.438;-1.528;2024-01-15T03:53:44;6.80;94.60
64062;DHT22;50308;47.438;-1.528;2024-01-15T03:56:10;6.80;94.60
64062;DHT22;50308;47.438;-1.528;2024-01-15T03:58:36;6.80;94.60
64062;DHT22;50308;47.438;-1.528;2024-01-15T04:01:01;6.80;94.60
64062;DHT22;50308;47.438;-1.528;2024-01-15T04:03:27;6.80;94.60
64062;DHT22;50308;47.438;-1.528;2024-01-15T04:05:53;6.80;94.60
64062;DHT22;50308;47.438;-1.528;2024-01-15T04:08:18;6.80;94.60
64062;DHT22;50308;47.438;-1.528;2024-01-15T04:10:44;6.80;94.60
64062;DHT22;50308;47.438;-1.528;2024-01-15T04:13:10;6.90;94.60
64062;DHT22;50308;47.438;-1.528;2024-01-15T04:15:35;6.80;94.60
64062;DHT22;50308;47.438;-1.528;2024-01-15T04:18:02;6.80;94.60
64062;DHT22;50308;47.438;-1.528;2024-01-15T04:20:28;6.80;94.60
64062;DHT22;50308;47.438;-1.528;2024-01-15T04:22:54;6.80;94.70
64062;DHT22;50308;47.438;-1.528;2024-01-15T04:25:19;6.80;94.60
64062;DHT22;50308;47.438;-1.528;2024-01-15T04:27:45;6.80;94.60
64062;DHT22;50308;47.438;-1.528;2024-01-15T04:30:11;6.80;94.60
64062;DHT22;50308;47.438;-1.528;2024-01-15T04:32:37;6.80;94.60
64062;DHT22;50308;47.438;-1.528;2024-01-15T04:35:03;6.80;94.60
64062;DHT22;50308;47.438;-1.528;2024-01-15T04:37:28;6.80;94.60
64062;DHT22;50308;47.438;-1.528;2024-01-15T04:39:54;6.80;94.60
64062;DHT22;50308;47.438;-1.528;2024-01-15T04:42:23;6.80;94.70
64062;DHT22;50308;47.438;-1.528;2024-01-15T04:44:49;6.90;94.70
64062;DHT22;50308;47.438;-1.528;2024-01-15T04:47:15;6.90;94.70
64062;DHT22;50308;47.438;-1.528;2024-01-15T04:49:41;6.80;94.70
64062;DHT22;50308;47.438;-1.528;2024-01-15T04:52:06;6.90;94.80
64062;DHT22;50308;47.438;-1.528;2024-01-15T04:54:32;6.80;94.70
64062;DHT22;50308;47.438;-1.528;2024-01-15T04:56:58;6.80;94.70
64062;DHT22;50308;47.438;-1.528;2024-01-15T04:59:23;6.80;94.80
64062;DHT22;50308;47.438;-1.528;2024-01-15T05:01:49;6.80;94.70
64062;DHT22;50308;47.438;-1.528;2024-01-15T05:04:15;6.80;94.80
64062;DHT22;50308;47.438;-1.528;2024-01-15T05:06:40;6.80;94.80
64062;DHT22;50308;47.438;-1.528;2024-01-15T05:09:06;6.80;94.70
64062;DHT22;50308;47.438;-1.528;2024-01-15T05:11:32;6.80;94.80
64062;DHT22;50308;47.438;-1.528;2024-01-15T05:13:58;6.80;94.70
64062;DHT22;50308;47.438;-1.528;2024-01-15T05:16:24;6.80;94.80
64062;DHT22;50308;47.438;-1.528;2024-01-15T05:18:49;6.80;94.80
64062;DHT22;50308;47.438;-1.528;2024-01-15T05:21:15;6.80;94.80
64062;DHT22;50308;47.438;-1.528;2024-01-15T05:23:41;6.80;94.80
64062;DHT22;50308;47.438;-1.528;2024-01-15T05:26:07;6.80;94.80
64062;DHT22;50308;47.438;-1.528;2024-01-15T05:28:34;6.80;94.90
64062;DHT22;50308;47.438;-1.528;2024-01-15T05:31:00;6.80;94.90
64062;DHT22;50308;47.438;-1.528;2024-01-15T05:33:26;6.80;94.90
64062;DHT22;50308;47.438;-1.528;2024-01-15T05:35:51;6.80;94.90
64062;DHT22;50308;47.438;-1.528;2024-01-15T05:38:17;6.80;94.90
64062;DHT22;50308;47.438;-1.528;2024-01-15T05:40:43;6.80;94.90
64062;DHT22;50308;47.438;-1.528;2024-01-15T05:43:08;6.80;95.00
64062;DHT22;50308;47.438;-1.528;2024-01-15T05:45:35;6.80;95.00
64062;DHT22;50308;47.438;-1.528;2024-01-15T05:48:01;6.80;94.90
64062;DHT22;50308;47.438;-1.528;2024-01-15T05:50:27;6.80;95.00
64062;DHT22;50308;47.438;-1.528;2024-01-15T05:52:52;6.80;95.00
64062;DHT22;50308;47.438;-1.528;2024-01-15T05:55:18;6.80;94.90
64062;DHT22;50308;47.438;-1.528;2024-01-15T05:57:44;6.80;95.00
64062;DHT22;50308;47.438;-1.528;2024-01-15T06:00:11;6.80;95.00
64062;DHT22;50308;47.438;-1.528;2024-01-15T06:02:39;6.80;95.00
64062;DHT22;50308;47.438;-1.528;2024-01-15T06:05:06;6.80;95.00
64062;DHT22;50308;47.438;-1.528;2024-01-15T06:07:33;6.80;95.00
64062;DHT22;50308;47.438;-1.528;2024-01-15T06:09:59;6.80;95.00
64062;DHT22;50308;47.438;-1.528;2024-01-15T06:12:24;6.80;95.00
64062;DHT22;50308;47.438;-1.528;2024-01-15T06:14:50;6.90;95.00
64062;DHT22;50308;47.438;-1.528;2024-01-15T06:17:16;6.80;95.00
64062;DHT22;50308;47.438;-1.528;2024-01-15T06:19:41;6.80;95.00
64062;DHT22;50308;47.438;-1.528;2024-01-15T06:22:07;6.80;95.00
64062;DHT22;50308;47.438;-1.528;2024-01-15T06:24:33;6.80;95.00
64062;DHT22;50308;47.438;-1.528;2024-01-15T06:26:59;6.90;95.10
64062;DHT22;50308;47.438;-1.528;2024-01-15T06:29:26;6.90;95.10
64062;DHT22;50308;47.438;-1.528;2024-01-15T06:31:52;6.80;95.10
64062;DHT22;50308;47.438;-1.528;2024-01-15T06:34:18;6.90;95.10
64062;DHT22;50308;47.438;-1.528;2024-01-15T06:36:44;6.90;95.10
64062;DHT22;50308;47.438;-1.528;2024-01-15T06:39:10;6.90;95.10
64062;DHT22;50308;47.438;-1.528;2024-01-15T06:41:36;6.90;95.10
64062;DHT22;50308;47.438;-1.528;2024-01-15T06:44:12;6.90;95.10
64062;DHT22;50308;47.438;-1.528;2024-01-15T06:46:44;6.90;95.10
64062;DHT22;50308;47.438;-1.528;2024-01-15T06:49:10;6.90;95.10
64062;DHT22;50308;47.438;-1.528;2024-01-15T06:51:36;6.90;95.10
64062;DHT22;50308;47.438;-1.528;2024-01-15T06:54:02;6.90;95.10
64062;DHT22;50308;47.438;-1.528;2024-01-15T06:56:28;6.90;95.20
64062;DHT22;50308;47.438;-1.528;2024-01-15T06:58:54;6.90;95.10
64062;DHT22;50308;47.438;-1.528;2024-01-15T07:01:19;6.90;95.10
64062;DHT22;50308;47.438;-1.528;2024-01-15T07:03:45;6.90;95.10
64062;DHT22;50308;47.438;-1.528;2024-01-15T07:06:11;6.90;95.10
64062;DHT22;50308;47.438;-1.528;2024-01-15T07:08:39;6.90;95.10
64062;DHT22;50308;47.438;-1.528;2024-01-15T07:11:05;6.90;95.10
64062;DHT22;50308;47.438;-1.528;2024-01-15T07:13:31;6.90;95.10
64062;DHT22;50308;47.438;-1.528;2024-01-15T07:15:57;6.90;95.10
64062;DHT22;50308;47.438;-1.528;2024-01-15T07:18:23;6.90;95.10
64062;DHT22;50308;47.438;-1.528;2024-01-15T07:20:49;6.90;95.10
64062;DHT22;50308;47.438;-1.528;2024-01-15T07:23:15;6.90;95.10
64062;DHT22;50308;47.438;-1.528;2024-01-15T07:25:40;6.90;95.20
64062;DHT22;50308;47.438;-1.528;2024-01-15T07:28:06;6.90;95.10
64062;DHT22;50308;47.438;-1.528;2024-01-15T07:30:32;6.90;95.10
64062;DHT22;50308;47.438;-1.528;2024-01-15T07:32:58;6.90;95.10
64062;DHT22;50308;47.438;-1.528;2024-01-15T07:35:23;6.90;95.10
64062;DHT22;50308;47.438;-1.528;2024-01-15T07:37:49;6.90;95.20
64062;DHT22;50308;47.438;-1.528;2024-01-15T07:40:15;6.90;95.20
64062;DHT22;50308;47.438;-1.528;2024-01-15T07:42:40;6.90;95.10
64062;DHT22;50308;47.438;-1.528;2024-01-15T07:45:08;6.90;95.60
64062;DHT22;50308;47.438;-1.528;2024-01-15T07:47:34;6.90;95.20
64062;DHT22;50308;47.438;-1.528;2024-01-15T07:50:00;6.90;95.10
64062;DHT22;50308;47.438;-1.528;2024-01-15T07:52:26;6.90;95.20
64062;DHT22;50308;47.438;-1.528;2024-01-15T07:54:51;6.90;95.20
64062;DHT22;50308;47.438;-1.528;2024-01-15T07:57:17;6.90;95.20
64062;DHT22;50308;47.438;-1.528;2024-01-15T07:59:42;6.90;95.30
64062;DHT22;50308;47.438;-1.528;2024-01-15T08:02:08;6.80;95.30
64062;DHT22;50308;47.438;-1.528;2024-01-15T08:04:34;6.90;95.30
64062;DHT22;50308;47.438;-1.528;2024-01-15T08:06:59;6.90;95.30
64062;DHT22;50308;47.438;-1.528;2024-01-15T08:09:25;6.90;95.30
64062;DHT22;50308;47.438;-1.528;2024-01-15T08:11:51;6.90;95.30
64062;DHT22;50308;47.438;-1.528;2024-01-15T08:14:17;6.90;95.20
64062;DHT22;50308;47.438;-1.528;2024-01-15T08:16:43;6.90;95.30
64062;DHT22;50308;47.438;-1.528;2024-01-15T08:19:09;6.90;95.30
64062;DHT22;50308;47.438;-1.528;2024-01-15T08:21:35;6.90;95.30
64062;DHT22;50308;47.438;-1.528;2024-01-15T08:24:02;6.90;95.30
64062;DHT22;50308;47.438;-1.528;2024-01-15T08:26:31;6.90;95.30
64062;DHT22;50308;47.438;-1.528;2024-01-15T08:28:58;6.90;95.40
64062;DHT22;50308;47.438;-1.528;2024-01-15T08:31:24;6.90;95.40
64062;DHT22;50308;47.438;-1.528;2024-01-15T08:33:49;6.90;95.40
64062;DHT22;50308;47.438;-1.528;2024-01-15T08:36:15;6.90;95.40
64062;DHT22;50308;47.438;-1.528;2024-01-15T08:38:41;6.90;95.40
64062;DHT22;50308;47.438;-1.528;2024-01-15T08:41:07;6.90;95.40
64062;DHT22;50308;47.438;-1.528;2024-01-15T08:43:34;6.90;95.40
64062;DHT22;50308;47.438;-1.528;2024-01-15T08:46:00;6.90;95.50
64062;DHT22;50308;47.438;-1.528;2024-01-15T08:48:26;6.90;95.50
64062;DHT22;50308;47.438;-1.528;2024-01-15T08:50:53;6.90;95.40
64062;DHT22;50308;47.438;-1.528;2024-01-15T08:53:20;6.90;95.50
64062;DHT22;50308;47.438;-1.528;2024-01-15T08:55:46;6.90;95.50
64062;DHT22;50308;47.438;-1.528;2024-01-15T08:58:12;6.90;95.50
64062;DHT22;50308;47.438;-1.528;2024-01-15T09:00:37;6.90;95.60
64062;DHT22;50308;47.438;-1.528;2024-01-15T09:03:03;6.90;95.60
64062;DHT22;50308;47.438;-1.528;2024-01-15T09:05:29;6.90;95.60
64062;DHT22;50308;47.438;-1.528;2024-01-15T09:07:55;6.90;95.60
64062;DHT22;50308;47.438;-1.528;2024-01-15T09:10:21;6.90;95.60
64062;DHT22;50308;47.438;-1.528;2024-01-15T09:12:47;6.90;95.60
64062;DHT22;50308;47.438;-1.528;2024-01-15T09:15:14;6.90;95.60
64062;DHT22;50308;47.438;-1.528;2024-01-15T09:17:40;6.90;95.60
64062;DHT22;50308;47.438;-1.528;2024-01-15T09:20:06;6.90;95.70
64062;DHT22;50308;47.438;-1.528;2024-01-15T09:22:32;6.90;95.70
64062;DHT22;50308;47.438;-1.528;2024-01-15T09:24:58;6.90;95.70
64062;DHT22;50308;47.438;-1.528;2024-01-15T09:27:24;7.00;95.80
64062;DHT22;50308;47.438;-1.528;2024-01-15T09:29:53;7.00;95.70
64062;DHT22;50308;47.438;-1.528;2024-01-15T09:32:19;7.00;95.80
64062;DHT22;50308;47.438;-1.528;2024-01-15T09:34:45;7.00;95.70
64062;DHT22;50308;47.438;-1.528;2024-01-15T09:37:12;7.00;95.70
64062;DHT22;50308;47.438;-1.528;2024-01-15T09:39:39;7.00;95.80
64062;DHT22;50308;47.438;-1.528;2024-01-15T09:42:05;7.00;95.80
64062;DHT22;50308;47.438;-1.528;2024-01-15T09:44:31;7.10;95.90
64062;DHT22;50308;47.438;-1.528;2024-01-15T09:46:57;7.00;95.80
64062;DHT22;50308;47.438;-1.528;2024-01-15T09:49:23;7.10;95.80
64062;DHT22;50308;47.438;-1.528;2024-01-15T09:51:49;7.00;95.80
64062;DHT22;50308;47.438;-1.528;2024-01-15T09:54:18;7.10;95.90
64062;DHT22;50308;47.438;-1.528;2024-01-15T09:56:47;7.10;95.90
64062;DHT22;50308;47.438;-1.528;2024-01-15T09:59:18;7.10;95.90
64062;DHT22;50308;47.438;-1.528;2024-01-15T10:01:45;7.10;95.90
64062;DHT22;50308;47.438;-1.528;2024-01-15T10:04:14;7.10;95.90
64062;DHT22;50308;47.438;-1.528;2024-01-15T10:06:51;7.10;96.00
64062;DHT22;50308;47.438;-1.528;2024-01-15T10:09:17;7.10;96.00
64062;DHT22;50308;47.438;-1.528;2024-01-15T10:11:44;7.10;96.00
64062;DHT22;50308;47.438;-1.528;2024-01-15T10:14:13;7.10;96.10
64062;DHT22;50308;47.438;-1.528;2024-01-15T10:16:42;7.20;96.00
64062;DHT22;50308;47.438;-1.528;2024-01-15T10:19:08;7.20;96.00
64062;DHT22;50308;47.438;-1.528;2024-01-15T10:21:35;7.20;96.10
64062;DHT22;50308;47.438;-1.528;2024-01-15T10:24:01;7.20;96.10
64062;DHT22;50308;47.438;-1.528;2024-01-15T10:26:28;7.20;96.10
64062;DHT22;50308;47.438;-1.528;2024-01-15T10:28:53;7.20;96.20
64062;DHT22;50308;47.438;-1.528;2024-01-15T10:31:19;7.20;96.10
64062;DHT22;50308;47.438;-1.528;2024-01-15T10:33:50;7.20;96.30
64062;DHT22;50308;47.438;-1.528;2024-01-15T10:36:16;7.20;96.30
64062;DHT22;50308;47.438;-1.528;2024-01-15T10:38:46;7.20;96.30
64062;DHT22;50308;47.438;-1.528;2024-01-15T10:41:12;7.20;96.20
64062;DHT22;50308;47.438;-1.528;2024-01-15T10:43:38;7.30;96.30
64062;DHT22;50308;47.438;-1.528;2024-01-15T10:46:06;7.20;96.30
64062;DHT22;50308;47.438;-1.528;2024-01-15T10:48:33;7.30;96.30
64062;DHT22;50308;47.438;-1.528;2024-01-15T10:51:01;7.30;96.30
64062;DHT22;50308;47.438;-1.528;2024-01-15T10:53:29;7.30;96.40
64062;DHT22;50308;47.438;-1.528;2024-01-15T10:55:57;7.30;96.40
64062;DHT22;50308;47.438;-1.528;2024-01-15T10:58:24;7.30;96.40
64062;DHT22;50308;47.438;-1.528;2024-01-15T11:00:53;7.30;96.50
64062;DHT22;50308;47.438;-1.528;2024-01-15T11:03:19;7.30;96.50
64062;DHT22;50308;47.438;-1.528;2024-01-15T11:05:45;7.40;96.50
64062;DHT22;50308;47.438;-1.528;2024-01-15T11:08:13;7.40;96.50
64062;DHT22;50308;47.438;-1.528;2024-01-15T11:10:47;7.40;96.50
64062;DHT22;50308;47.438;-1.528;2024-01-15T11:13:19;7.40;96.50
64062;DHT22;50308;47.438;-1.528;2024-01-15T11:16:06;7.40;96.50
64062;DHT22;50308;47.438;-1.528;2024-01-15T11:18:36;7.40;96.50
64062;DHT22;50308;47.438;-1.528;2024-01-15T11:28:54;7.40;96.60
64062;DHT22;50308;47.438;-1.528;2024-01-15T11:31:20;7.40;96.60
64062;DHT22;50308;47.438;-1.528;2024-01-15T11:33:51;7.50;96.70
64062;DHT22;50308;47.438;-1.528;2024-01-15T11:36:16;7.50;96.70
64062;DHT22;50308;47.438;-1.528;2024-01-15T11:38:42;7.50;96.70
64062;DHT22;50308;47.438;-1.528;2024-01-15T11:41:15;7.50;96.80
64062;DHT22;50308;47.438;-1.528;2024-01-15T11:43:43;7.50;96.70
64062;DHT22;50308;47.438;-1.528;2024-01-15T11:46:12;7.50;96.70
64062;DHT22;50308;47.438;-1.528;2024-01-15T11:48:52;7.50;96.70
64062;DHT22;50308;47.438;-1.528;2024-01-15T11:51:24;7.50;96.90
64062;DHT22;50308;47.438;-1.528;2024-01-15T11:53:52;7.50;96.90
64062;DHT22;50308;47.438;-1.528;2024-01-15T11:56:22;7.50;96.80
64062;DHT22;50308;47.438;-1.528;2024-01-15T11:58:48;7.50;97.00
64062;DHT22;50308;47.438;-1.528;2024-01-15T12:01:16;7.60;97.00
64062;DHT22;50308;47.438;-1.528;2024-01-15T12:03:42;7.60;97.00
64062;DHT22;50308;47.438;-1.528;2024-01-15T12:06:09;7.60;97.00
64062;DHT22;50308;47.438;-1.528;2024-01-15T12:08:37;7.60;97.10
64062;DHT22;50308;47.438;-1.528;2024-01-15T12:11:13;7.60;97.10
64062;DHT22;50308;47.438;-1.528;2024-01-15T12:13:41;7.60;97.00
64062;DHT22;50308;47.438;-1.528;2024-01-15T12:16:06;7.60;97.00
64062;DHT22;50308;47.438;-1.528;2024-01-15T12:18:34;7.70;97.00
64062;DHT22;50308;47.438;-1.528;2024-01-15T12:20:59;7.70;97.00
64062;DHT22;50308;47.438;-1.528;2024-01-15T12:23:25;7.60;97.00
64062;DHT22;50308;47.438;-1.528;2024-01-15T12:25:52;7.70;97.00
64062;DHT22;50308;47.438;-1.528;2024-01-15T12:28:18;7.60;97.00
64062;DHT22;50308;47.438;-1.528;2024-01-15T12:30:47;7.70;97.00
64062;DHT22;50308;47.438;-1.528;2024-01-15T12:33:14;7.70;96.90
64062;DHT22;50308;47.438;-1.528;2024-01-15T12:35:40;7.70;97.10
64062;DHT22;50308;47.438;-1.528;2024-01-15T12:38:05;7.70;97.00
64062;DHT22;50308;47.438;-1.528;2024-01-15T12:40:32;7.70;96.90
64062;DHT22;50308;47.438;-1.528;2024-01-15T12:42:59;7.70;96.90
64062;DHT22;50308;47.438;-1.528;2024-01-15T12:45:25;7.70;96.80
64062;DHT22;50308;47.438;-1.528;2024-01-15T12:47:51;7.70;96.90
64062;DHT22;50308;47.438;-1.528;2024-01-15T12:50:18;7.70;96.90
64062;DHT22;50308;47.438;-1.528;2024-01-15T12:52:43;7.70;97.00
64062;DHT22;50308;47.438;-1.528;2024-01-15T12:55:10;7.70;97.00
64062;DHT22;50308;47.438;-1.528;2024-01-15T12:57:36;7.80;97.00
64062;DHT22;50308;47.438;-1.528;2024-01-15T13:00:03;7.80;96.90
64062;DHT22;50308;47.438;-1.528;2024-01-15T13:02:32;7.80;96.90
64062;DHT22;50308;47.438;-1.528;2024-01-15T13:04:58;7.80;96.90
64062;DHT22;50308;47.438;-1.528;2024-01-15T13:07:25;7.80;96.90
64062;DHT22;50308;47.438;-1.528;2024-01-15T13:09:50;7.80;96.90
64062;DHT22;50308;47.438;-1.528;2024-01-15T13:12:19;7.80;96.80
64062;DHT22;50308;47.438;-1.528;2024-01-15T13:14:45;7.80;96.80
64062;DHT22;50308;47.438;-1.528;2024-01-15T13:17:12;7.80;96.70
64062;DHT22;50308;47.438;-1.528;2024-01-15T13:19:40;7.80;96.70
64062;DHT22;50308;47.438;-1.528;2024-01-15T13:22:05;7.80;96.60
64062;DHT22;50308;47.438;-1.528;2024-01-15T13:24:33;7.80;96.50
64062;DHT22;50308;47.438;-1.528;2024-01-15T13:26:59;7.90;96.70
64062;DHT22;50308;47.438;-1.528;2024-01-15T13:29:25;7.90;96.50
64062;DHT22;50308;47.438;-1.528;2024-01-15T13:31:51;7.90;96.50
64062;DHT22;50308;47.438;-1.528;2024-01-15T13:34:17;7.90;96.50
64062;DHT22;50308;47.438;-1.528;2024-01-15T13:36:42;7.90;96.50
64062;DHT22;50308;47.438;-1.528;2024-01-15T13:39:08;7.90;96.50
64062;DHT22;50308;47.438;-1.528;2024-01-15T13:41:35;7.90;96.50
64062;DHT22;50308;47.438;-1.528;2024-01-15T13:44:00;7.90;96.50
64062;DHT22;50308;47.438;-1.528;2024-01-15T13:46:26;7.90;96.50
64062;DHT22;50308;47.438;-1.528;2024-01-15T13:48:52;8.00;96.70
64062;DHT22;50308;47.438;-1.528;2024-01-15T13:51:18;8.00;96.60
64062;DHT22;50308;47.438;-1.528;2024-01-15T13:53:44;8.00;96.50
64062;DHT22;50308;47.438;-1.528;2024-01-15T13:56:10;8.00;96.90
64062;DHT22;50308;47.438;-1.528;2024-01-15T13:58:36;8.00;96.40
64062;DHT22;50308;47.438;-1.528;2024-01-15T14:01:03;8.10;96.30
64062;DHT22;50308;47.438;-1.528;2024-01-15T14:03:32;8.00;96.10
64062;DHT22;50308;47.438;-1.528;2024-01-15T14:05:58;8.00;96.10
64062;DHT22;50308;47.438;-1.528;2024-01-15T14:08:24;8.10;96.10
64062;DHT22;50308;47.438;-1.528;2024-01-15T14:10:49;8.00;96.10
64062;DHT22;50308;47.438;-1.528;2024-01-15T14:13:15;8.00;96.10
64062;DHT22;50308;47.438;-1.528;2024-01-15T14:15:41;8.00;96.20
64062;DHT22;50308;47.438;-1.528;2024-01-15T14:18:06;8.10;96.10
64062;DHT22;50308;47.438;-1.528;2024-01-15T14:20:32;8.10;96.00
64062;DHT22;50308;47.438;-1.528;2024-01-15T14:22:58;8.10;96.00
64062;DHT22;50308;47.438;-1.528;2024-01-15T14:25:24;8.10;95.90
64062;DHT22;50308;47.438;-1.528;2024-01-15T14:27:50;8.10;95.80
64062;DHT22;50308;47.438;-1.528;2024-01-15T14:30:16;8.10;95.90
64062;DHT22;50308;47.438;-1.528;2024-01-15T14:32:44;8.10;95.80
64062;DHT22;50308;47.438;-1.528;2024-01-15T14:35:10;8.10;95.80
64062;DHT22;50308;47.438;-1.528;2024-01-15T14:37:39;8.10;95.80
64062;DHT22;50308;47.438;-1.528;2024-01-15T14:40:06;8.10;95.70
64062;DHT22;50308;47.438;-1.528;2024-01-15T14:42:34;8.10;95.70
64062;DHT22;50308;47.438;-1.528;2024-01-15T14:44:59;8.10;95.60
64062;DHT22;50308;47.438;-1.528;2024-01-15T14:47:26;8.10;95.60
64062;DHT22;50308;47.438;-1.528;2024-01-15T14:49:53;8.00;95.60
64062;DHT22;50308;47.438;-1.528;2024-01-15T14:52:18;8.10;95.60
64062;DHT22;50308;47.438;-1.528;2024-01-15T14:54:45;8.10;95.60
64062;DHT22;50308;47.438;-1.528;2024-01-15T14:57:13;8.10;95.50
64062;DHT22;50308;47.438;-1.528;2024-01-15T14:59:39;8.00;95.40
64062;DHT22;50308;47.438;-1.528;2024-01-15T15:02:05;8.00;95.30
64062;DHT22;50308;47.438;-1.528;2024-01-15T15:04:30;8.00;95.20
64062;DHT22;50308;47.438;-1.528;2024-01-15T15:06:56;8.00;95.30
64062;DHT22;50308;47.438;-1.528;2024-01-15T15:09:22;7.90;95.20
64062;DHT22;50308;47.438;-1.528;2024-01-15T15:11:48;7.90;95.20
64062;DHT22;50308;47.438;-1.528;2024-01-15T15:14:13;7.90;95.20
64062;DHT22;50308;47.438;-1.528;2024-01-15T15:16:39;7.90;95.10
64062;DHT22;50308;47.438;-1.528;2024-01-15T15:19:05;7.90;95.20
64062;DHT22;50308;47.438;-1.528;2024-01-15T15:21:30;7.90;95.10
64062;DHT22;50308;47.438;-1.528;2024-01-15T15:23:56;7.90;95.00
64062;DHT22;50308;47.438;-1.528;2024-01-15T15:26:21;7.90;94.90
64062;DHT22;50308;47.438;-1.528;2024-01-15T15:28:47;7.90;94.80
64062;DHT22;50308;47.438;-1.528;2024-01-15T15:31:14;7.90;94.90
64062;DHT22;50308;47.438;-1.528;2024-01-15T15:33:40;7.90;95.10